createdAt,value
2022-10-19T00:01:28.838Z,18.98
2022-10-19T00:03:57.326Z,18.81
2022-10-19T00:06:29.274Z,18.84
2022-10-19T00:09:04.750Z,18.90
2022-10-19T00:11:37.630Z,18.54
2022-10-19T00:14:08.056Z,18.33
2022-10-19T00:16:38.443Z,18.20
2022-10-19T00:19:12.385Z,18.40
2022-10-19T00:21:43.354Z,18.53
2022-10-19T00:24:11.668Z,18.52
2022-10-19T00:26:40.073Z,18.52
2022-10-19T00:29:08.690Z,18.61
2022-10-19T00:31:36.870Z,18.70
2022-10-19T00:34:05.082Z,18.68
2022-10-19T00:36:36.273Z,18.70
2022-10-19T00:39:05.995Z,18.65
2022-10-19T00:41:36.224Z,18.58
2022-10-19T00:44:11.781Z,18.43
2022-10-19T00:46:43.715Z,18.13
2022-10-19T00:49:25.048Z,17.79
2022-10-19T00:52:03.000Z,17.55
2022-10-19T00:54:33.664Z,17.29
2022-10-19T00:57:03.426Z,17.01
2022-10-19T00:59:32.857Z,16.70
2022-10-19T01:02:03.697Z,16.66
2022-10-19T01:04:35.146Z,16.69
2022-10-19T01:07:05.355Z,16.52
2022-10-19T01:09:33.878Z,16.44
2022-10-19T01:12:21.833Z,16.70
2022-10-19T01:15:11.687Z,16.93
2022-10-19T01:18:12.082Z,17.24
2022-10-19T01:21:04.728Z,17.61
2022-10-19T01:23:44.683Z,17.79
2022-10-19T01:26:38.365Z,17.59
2022-10-19T01:29:48.078Z,17.51
2022-10-19T01:32:55.326Z,17.32
2022-10-19T01:35:34.851Z,17.50
2022-10-19T01:38:09.225Z,17.68
2022-10-19T01:41:11.311Z,17.48
2022-10-19T01:43:55.469Z,17.80
2022-10-19T01:46:32.402Z,17.84
2022-10-19T01:49:09.990Z,18.17
2022-10-19T01:51:43.968Z,18.50
2022-10-19T01:54:16.371Z,18.37
2022-10-19T01:56:47.712Z,18.27
2022-10-19T01:59:26.459Z,18.29
2022-10-19T02:01:58.277Z,18.17
2022-10-19T02:04:27.277Z,17.97
2022-10-19T02:06:55.988Z,17.65
2022-10-19T02:09:24.098Z,17.60
2022-10-19T02:11:57.618Z,17.63
2022-10-19T02:14:37.946Z,17.48
2022-10-19T02:17:10.201Z,17.30
2022-10-19T02:19:38.343Z,17.10
2022-10-19T02:22:07.820Z,17.04
2022-10-19T02:24:35.933Z,17.21
2022-10-19T02:27:06.647Z,17.45
2022-10-19T02:29:37.072Z,17.39
2022-10-19T02:32:09.236Z,17.39
2022-10-19T02:34:39.655Z,17.35
2022-10-19T02:37:07.858Z,17.45
2022-10-19T02:39:36.119Z,17.64
2022-10-19T02:42:12.164Z,17.89
2022-10-19T02:45:02.644Z,17.68
2022-10-19T02:47:54.186Z,17.37
2022-10-19T02:50:23.534Z,17.30
2022-10-19T02:52:51.834Z,17.28
2022-10-19T02:55:19.986Z,17.20
2022-10-19T02:57:47.877Z,17.31
2022-10-19T03:00:16.098Z,17.38
2022-10-19T03:02:44.892Z,17.13
2022-10-19T03:05:12.947Z,17.37
2022-10-19T03:07:42.412Z,17.78
2022-10-19T03:10:10.373Z,17.92
2022-10-19T03:12:38.353Z,17.87
2022-10-19T03:15:06.931Z,17.71
2022-10-19T03:17:35.973Z,17.56
2022-10-19T03:20:07.713Z,17.36
2022-10-19T03:22:35.759Z,17.05
2022-10-19T03:25:04.128Z,16.94
2022-10-19T03:27:32.648Z,16.90
2022-10-19T03:30:04.366Z,16.70
2022-10-19T03:32:32.376Z,16.63
2022-10-19T03:35:00.344Z,16.68
2022-10-19T03:37:28.351Z,16.61
2022-10-19T03:39:56.286Z,16.45
2022-10-19T03:42:24.526Z,16.29
2022-10-19T03:44:52.597Z,16.19
2022-10-19T03:47:20.656Z,16.31
2022-10-19T03:49:50.377Z,16.36
2022-10-19T03:52:19.770Z,16.34
2022-10-19T03:54:51.281Z,16.21
2022-10-19T03:57:19.399Z,15.99
2022-10-19T03:59:47.378Z,15.77
2022-10-19T04:02:15.461Z,15.72
2022-10-19T04:04:44.518Z,15.62
2022-10-19T04:07:12.603Z,15.47
2022-10-19T04:09:40.680Z,15.30
2022-10-19T04:12:08.853Z,15.21
2022-10-19T04:14:52.423Z,15.08
2022-10-19T04:17:24.656Z,15.07
2022-10-19T04:19:52.729Z,15.16
2022-10-19T04:22:20.699Z,15.23
2022-10-19T04:24:48.712Z,15.48
2022-10-19T04:27:16.774Z,15.70
2022-10-19T04:29:44.832Z,15.82
2022-10-19T04:32:12.842Z,15.79
2022-10-19T04:34:41.030Z,15.59
2022-10-19T04:37:09.770Z,15.51
2022-10-19T04:39:41.192Z,15.63
2022-10-19T04:42:09.283Z,15.52
2022-10-19T04:44:37.687Z,15.36
2022-10-19T04:47:05.875Z,15.38
2022-10-19T04:49:34.026Z,15.17
2022-10-19T04:52:02.624Z,14.98
2022-10-19T04:54:30.931Z,15.01
2022-10-19T04:56:59.308Z,15.37
2022-10-19T04:59:30.481Z,15.56
2022-10-19T05:01:59.248Z,15.53
2022-10-19T05:04:29.084Z,15.50
2022-10-19T05:06:57.376Z,15.57
2022-10-19T05:09:25.512Z,15.71
2022-10-19T05:11:53.618Z,15.86
2022-10-19T05:14:21.921Z,16.11
2022-10-19T05:16:50.275Z,16.22
2022-10-19T05:19:18.604Z,16.24
2022-10-19T05:21:46.970Z,16.09
2022-10-19T05:24:14.974Z,15.93
2022-10-19T05:26:43.080Z,15.74
2022-10-19T05:29:13.385Z,15.56
2022-10-19T05:31:42.040Z,15.27
2022-10-19T05:34:10.153Z,14.89
2022-10-19T05:36:39.725Z,14.81
2022-10-19T05:39:17.033Z,14.89
2022-10-19T05:41:47.691Z,14.68
2022-10-19T05:44:22.037Z,14.49
2022-10-19T05:46:51.852Z,14.43
2022-10-19T05:49:21.632Z,14.28
2022-10-19T05:51:50.432Z,14.17
2022-10-19T05:54:20.367Z,14.06
2022-10-19T05:56:50.509Z,14.05
2022-10-19T05:59:20.494Z,14.16
2022-10-19T06:01:50.261Z,14.22
2022-10-19T06:04:20.214Z,14.19
2022-10-19T06:06:48.554Z,14.15
2022-10-19T06:09:16.999Z,14.16
2022-10-19T06:11:45.703Z,14.13
2022-10-19T06:14:16.402Z,14.12
2022-10-19T06:16:46.331Z,14.13
2022-10-19T06:19:15.188Z,14.06
2022-10-19T06:21:46.167Z,14.27
2022-10-19T06:24:15.988Z,14.23
2022-10-19T06:26:44.266Z,14.18
2022-10-19T06:29:12.725Z,14.09
2022-10-19T06:31:41.244Z,14.02
2022-10-19T06:34:09.484Z,13.98
2022-10-19T06:36:38.567Z,13.99
2022-10-19T06:39:07.864Z,14.26
2022-10-19T06:41:37.219Z,14.76
2022-10-19T06:44:21.058Z,14.68
2022-10-19T06:46:51.312Z,14.80
2022-10-19T06:49:22.643Z,14.92
2022-10-19T06:51:54.006Z,15.01
2022-10-19T06:54:25.619Z,14.74
2022-10-19T06:56:55.422Z,15.01
2022-10-19T06:59:26.650Z,15.43
2022-10-19T07:01:55.328Z,15.53
2022-10-19T07:04:26.647Z,15.40
2022-10-19T07:06:56.984Z,15.64
2022-10-19T07:09:25.480Z,15.68
2022-10-19T07:11:54.229Z,15.49
2022-10-19T07:14:28.861Z,15.60
2022-10-19T07:16:58.207Z,15.66
2022-10-19T07:19:26.975Z,15.85
2022-10-19T07:21:55.327Z,15.99
2022-10-19T07:24:23.643Z,16.14
2022-10-19T07:26:52.284Z,16.07
2022-10-19T07:29:20.705Z,15.96
2022-10-19T07:31:49.151Z,16.24
2022-10-19T07:34:17.715Z,16.26
2022-10-19T07:36:48.535Z,16.06
2022-10-19T07:39:17.671Z,16.08
2022-10-19T07:41:46.777Z,16.27
2022-10-19T07:44:16.295Z,16.21
2022-10-19T07:46:45.179Z,16.46
2022-10-19T07:49:16.658Z,16.55
2022-10-19T07:51:46.488Z,16.48
2022-10-19T07:54:15.483Z,16.58
2022-10-19T07:56:44.058Z,16.38
2022-10-19T07:59:14.557Z,16.39
2022-10-19T08:01:44.139Z,16.49
2022-10-19T08:04:55.571Z,16.30
2022-10-19T08:07:02.051Z,16.29
2022-10-19T08:09:52.086Z,16.34
2022-10-19T08:12:20.724Z,16.40
2022-10-19T08:14:50.403Z,16.16
2022-10-19T08:17:20.021Z,16.34
2022-10-19T08:19:48.749Z,16.31
2022-10-19T08:22:17.579Z,16.30
2022-10-19T08:24:46.232Z,16.26
2022-10-19T08:27:15.476Z,16.54
2022-10-19T08:29:44.160Z,16.36
2022-10-19T08:32:16.193Z,16.34
2022-10-19T08:34:45.499Z,16.18
2022-10-19T08:37:25.859Z,16.34
2022-10-19T08:40:02.798Z,15.89
2022-10-19T08:42:49.921Z,15.21
2022-10-19T08:45:22.497Z,15.44
2022-10-19T08:47:57.418Z,15.68
2022-10-19T08:50:35.361Z,15.74
2022-10-19T08:53:19.548Z,15.80
2022-10-19T08:55:50.934Z,15.97
2022-10-19T08:58:31.757Z,15.87
2022-10-19T09:01:14.228Z,15.87
2022-10-19T09:04:21.937Z,15.83
2022-10-19T09:07:31.396Z,16.55
2022-10-19T09:10:15.900Z,16.71
2022-10-19T09:13:00.692Z,15.84
2022-10-19T09:15:38.982Z,15.38
2022-10-19T09:18:28.529Z,16.02
2022-10-19T09:21:46.112Z,16.46
2022-10-19T09:24:47.947Z,15.86
2022-10-19T09:27:26.113Z,15.11
2022-10-19T09:29:56.412Z,15.68
2022-10-19T09:32:31.722Z,16.36
2022-10-19T09:35:03.530Z,16.91
2022-10-19T09:37:37.033Z,16.52
2022-10-19T09:40:06.693Z,15.78
2022-10-19T09:42:37.047Z,15.44
2022-10-19T09:45:17.752Z,15.68
2022-10-19T09:47:49.116Z,16.05
2022-10-19T09:50:24.216Z,16.46
2022-10-19T09:52:56.771Z,16.69
2022-10-19T09:55:44.390Z,16.68
2022-10-19T09:58:15.620Z,16.55
2022-10-19T10:00:47.405Z,16.49
2022-10-19T10:03:43.828Z,16.93
2022-10-19T10:06:17.466Z,16.88
2022-10-19T10:08:51.113Z,16.17
2022-10-19T10:11:30.348Z,15.62
2022-10-19T10:14:07.513Z,16.10
2022-10-19T10:16:38.386Z,16.93
2022-10-19T10:19:09.203Z,17.28
2022-10-19T10:21:48.516Z,16.79
2022-10-19T10:24:25.469Z,16.09
2022-10-19T10:26:57.062Z,15.72
2022-10-19T10:29:30.266Z,16.01
2022-10-19T10:32:20.359Z,16.00
2022-10-19T10:34:52.798Z,15.93
2022-10-19T10:37:35.081Z,15.90
2022-10-19T10:40:06.054Z,15.84
2022-10-19T10:42:43.756Z,16.05
2022-10-19T10:45:23.427Z,15.70
2022-10-19T10:47:52.714Z,15.00
2022-10-19T10:50:35.020Z,14.58
2022-10-19T10:53:06.541Z,14.89
2022-10-19T10:55:34.846Z,15.20
2022-10-19T10:58:15.633Z,15.35
2022-10-19T11:00:45.532Z,15.59
2022-10-19T11:03:24.080Z,15.58
2022-10-19T11:05:57.729Z,15.16
2022-10-19T11:08:41.387Z,14.73
2022-10-19T11:11:24.718Z,14.41
2022-10-19T11:14:19.108Z,14.36
2022-10-19T11:16:52.999Z,15.07
2022-10-19T11:19:27.670Z,15.65
2022-10-19T11:22:23.658Z,15.95
2022-10-19T11:25:18.649Z,15.53
2022-10-19T11:27:58.984Z,14.97
2022-10-19T11:30:28.091Z,14.60
2022-10-19T11:33:07.147Z,14.38
2022-10-19T11:35:54.427Z,14.77
2022-10-19T11:38:41.629Z,15.08
2022-10-19T11:41:17.761Z,15.08
2022-10-19T11:44:05.182Z,14.63
2022-10-19T11:46:42.997Z,14.16
2022-10-19T11:49:22.202Z,13.88
2022-10-19T11:51:59.423Z,14.09
2022-10-19T11:54:41.816Z,14.22
2022-10-19T11:57:30.074Z,14.44
2022-10-19T12:00:04.064Z,14.87
2022-10-19T12:02:45.108Z,15.06
2022-10-19T12:05:22.541Z,14.99
2022-10-19T12:08:05.036Z,14.96
2022-10-19T12:10:42.179Z,15.14
2022-10-19T12:13:14.614Z,15.11
2022-10-19T12:15:55.795Z,14.94
2022-10-19T12:18:23.903Z,14.85
2022-10-19T12:20:57.221Z,14.71
2022-10-19T12:23:31.361Z,14.63
2022-10-19T12:26:03.873Z,14.53
2022-10-19T12:28:35.500Z,14.48
2022-10-19T12:31:05.770Z,14.48
2022-10-19T12:33:36.854Z,15.08
2022-10-19T12:36:22.668Z,15.76
2022-10-19T12:38:59.652Z,16.10
2022-10-19T12:41:45.824Z,15.45
2022-10-19T12:44:47.692Z,14.82
2022-10-19T12:47:19.390Z,15.43
2022-10-19T12:49:58.189Z,15.82
2022-10-19T12:52:52.951Z,15.88
2022-10-19T12:55:35.027Z,15.27
2022-10-19T12:58:22.245Z,14.68
2022-10-19T13:01:04.062Z,14.92
2022-10-19T13:03:42.245Z,15.40
2022-10-19T13:06:16.146Z,15.91
2022-10-19T13:08:53.962Z,15.98
2022-10-19T13:11:22.705Z,15.20
2022-10-19T13:14:25.701Z,14.78
2022-10-19T13:16:58.732Z,15.44
2022-10-19T13:19:28.650Z,15.81
2022-10-19T13:22:02.686Z,15.97
2022-10-19T13:24:35.062Z,15.38
2022-10-19T13:27:03.654Z,14.65
2022-10-19T13:29:38.460Z,14.65
2022-10-19T13:32:43.572Z,14.98
2022-10-19T13:35:26.813Z,15.34
2022-10-19T13:38:17.049Z,15.63
2022-10-19T13:40:48.056Z,15.45
2022-10-19T13:43:41.178Z,15.56
2022-10-19T13:46:12.822Z,15.67
2022-10-19T13:49:04.526Z,15.48
2022-10-19T13:51:51.448Z,15.46
2022-10-19T13:54:47.012Z,15.50
2022-10-19T13:57:37.614Z,15.59
2022-10-19T14:00:18.422Z,15.68
2022-10-19T14:03:08.009Z,16.24
2022-10-19T14:06:04.175Z,16.14
2022-10-19T14:08:56.753Z,15.36
2022-10-19T14:11:35.460Z,15.10
2022-10-19T14:14:25.218Z,15.60
2022-10-19T14:16:58.247Z,15.90
2022-10-19T14:19:33.062Z,16.00
2022-10-19T14:22:23.666Z,16.10
2022-10-19T14:24:52.335Z,16.38
2022-10-19T14:27:24.977Z,16.16
2022-10-19T14:29:54.439Z,15.44
2022-10-19T14:32:27.673Z,14.92
2022-10-19T14:41:37.785Z,16.38
2022-10-19T14:44:43.190Z,15.83
2022-10-19T14:47:21.855Z,15.00
2022-10-19T14:49:51.538Z,15.13
2022-10-19T14:52:30.391Z,15.68
2022-10-19T14:55:00.466Z,15.79
2022-10-19T14:57:35.121Z,16.13
2022-10-19T15:00:15.252Z,15.80
2022-10-19T15:02:48.703Z,15.07
2022-10-19T15:05:24.499Z,14.65
2022-10-19T15:07:55.255Z,14.50
2022-10-19T15:10:44.982Z,14.54
2022-10-19T15:13:42.204Z,14.60
2022-10-19T15:16:32.070Z,14.80
2022-10-19T15:19:24.928Z,15.03
2022-10-19T15:22:21.821Z,15.04
2022-10-19T15:25:02.504Z,15.04
2022-10-19T15:27:48.069Z,15.05
2022-10-19T15:30:22.249Z,14.99
2022-10-19T15:32:55.648Z,14.73
2022-10-19T15:35:30.241Z,14.47
2022-10-19T15:38:06.661Z,14.31
2022-10-19T15:40:39.154Z,14.21
2022-10-19T15:43:37.115Z,14.12
2022-10-19T15:46:20.034Z,14.33
2022-10-19T15:48:58.437Z,14.40
2022-10-19T15:51:27.367Z,14.35
2022-10-19T15:54:02.558Z,14.33
2022-10-19T15:56:36.042Z,14.18
2022-10-19T15:59:20.574Z,14.02
2022-10-19T16:01:52.580Z,13.87
2022-10-19T16:04:22.852Z,13.72
2022-10-19T16:06:51.124Z,13.57
2022-10-19T16:09:21.945Z,13.40
2022-10-19T16:11:56.735Z,13.21
2022-10-19T16:14:27.018Z,13.04
2022-10-19T16:16:56.037Z,12.92
2022-10-19T16:19:24.698Z,12.88
2022-10-19T16:21:53.658Z,12.84
2022-10-19T16:24:22.105Z,12.76
2022-10-19T16:26:50.780Z,12.63
2022-10-19T16:29:19.108Z,12.51
2022-10-19T16:31:47.391Z,12.44
2022-10-19T16:34:15.904Z,12.32
2022-10-19T16:36:45.896Z,12.22
2022-10-19T16:39:15.621Z,12.22
2022-10-19T16:41:44.594Z,12.35
2022-10-19T16:44:23.319Z,12.41
2022-10-19T16:47:00.154Z,12.74
2022-10-19T16:49:30.042Z,13.25
2022-10-19T16:52:02.168Z,13.19
2022-10-19T16:54:33.506Z,13.04
2022-10-19T16:57:08.638Z,12.93
2022-10-19T16:59:39.534Z,12.84
2022-10-19T17:02:11.412Z,12.78
2022-10-19T17:04:41.740Z,12.73
2022-10-19T17:07:18.991Z,12.64
2022-10-19T17:10:00.294Z,12.59
2022-10-19T17:12:31.781Z,12.52
2022-10-19T17:15:29.937Z,12.44
2022-10-19T17:17:48.679Z,12.45
2022-10-19T17:20:18.118Z,13.38
2022-10-19T17:22:48.158Z,14.35
2022-10-19T17:25:17.160Z,14.92
2022-10-19T17:27:47.967Z,15.08
2022-10-19T17:30:21.963Z,15.08
2022-10-19T17:32:54.614Z,15.50
2022-10-19T17:35:23.070Z,15.83
2022-10-19T17:37:52.179Z,15.97
2022-10-19T17:40:22.835Z,16.05
2022-10-19T17:42:52.898Z,16.61
2022-10-19T17:45:23.065Z,16.92
2022-10-19T17:47:51.623Z,16.15
2022-10-19T17:50:21.836Z,15.15
2022-10-19T17:52:53.068Z,14.54
2022-10-19T17:55:27.355Z,15.19
2022-10-19T17:57:57.561Z,15.93
2022-10-19T18:00:27.333Z,16.12
2022-10-19T18:02:57.145Z,15.56
2022-10-19T18:05:26.504Z,14.68
2022-10-19T18:08:02.242Z,14.58
2022-10-19T18:10:36.401Z,14.89
2022-10-19T18:13:07.166Z,15.16
2022-10-19T18:15:35.910Z,15.34
2022-10-19T18:18:04.673Z,15.57
2022-10-19T18:20:34.287Z,15.79
2022-10-19T18:23:05.875Z,15.89
2022-10-19T18:25:53.545Z,15.81
2022-10-19T18:28:22.936Z,15.75
2022-10-19T18:30:51.838Z,15.51
2022-10-19T18:33:20.291Z,15.15
2022-10-19T18:35:49.009Z,14.90
2022-10-19T18:38:28.895Z,14.74
2022-10-19T18:43:54.030Z,14.82
2022-10-19T18:46:26.914Z,14.88
2022-10-19T18:49:03.128Z,14.80
2022-10-19T18:51:33.718Z,14.74
2022-10-19T18:54:05.269Z,14.70
2022-10-19T18:56:38.320Z,14.64
2022-10-19T18:59:16.389Z,14.64
2022-10-19T19:01:45.881Z,14.58
2022-10-19T19:04:15.549Z,14.43
2022-10-19T19:06:47.951Z,14.18
2022-10-19T19:09:19.481Z,13.91
2022-10-19T19:11:48.592Z,13.74
2022-10-19T19:14:21.209Z,13.55
2022-10-19T19:16:52.659Z,13.39
2022-10-19T19:19:24.700Z,13.38
2022-10-19T19:21:58.336Z,14.25
2022-10-19T19:24:32.252Z,15.00
2022-10-19T19:27:01.463Z,15.15
2022-10-19T19:29:31.406Z,14.84
2022-10-19T19:32:00.175Z,14.54
2022-10-19T19:34:29.622Z,14.23
2022-10-19T19:37:00.881Z,13.98
2022-10-19T19:39:31.851Z,13.73
2022-10-19T19:42:01.937Z,13.65
2022-10-19T19:44:32.431Z,14.16
2022-10-19T19:47:03.109Z,14.53
2022-10-19T19:49:33.496Z,14.77
2022-10-19T19:52:05.364Z,14.97
2022-10-19T19:54:34.454Z,15.29
2022-10-19T19:57:03.276Z,15.59
2022-10-19T19:59:33.371Z,15.65
2022-10-19T20:02:02.629Z,14.86
2022-10-19T20:04:35.031Z,13.95
2022-10-19T20:07:05.961Z,13.31
2022-10-19T20:09:35.832Z,13.52
2022-10-19T20:12:05.573Z,14.18
2022-10-19T20:14:34.163Z,14.44
2022-10-19T20:17:02.686Z,14.97
2022-10-19T20:19:31.427Z,15.40
2022-10-19T20:22:00.483Z,15.57
2022-10-19T20:24:29.287Z,15.58
2022-10-19T20:26:58.502Z,14.66
2022-10-19T20:29:27.065Z,13.72
2022-10-19T20:31:55.580Z,12.96
2022-10-19T20:34:27.198Z,12.35
2022-10-19T20:36:56.711Z,12.22
2022-10-19T20:39:25.674Z,13.39
2022-10-19T20:41:55.183Z,14.42
2022-10-19T20:44:24.371Z,15.04
2022-10-19T20:46:53.514Z,15.14
2022-10-19T20:49:24.802Z,14.28
2022-10-19T20:51:55.719Z,13.36
2022-10-19T20:54:29.274Z,12.64
2022-10-19T20:57:01.825Z,12.39
2022-10-19T20:59:35.440Z,13.31
2022-10-19T21:02:06.685Z,14.24
2022-10-19T21:04:35.156Z,14.77
2022-10-19T21:07:05.162Z,14.88
2022-10-19T21:09:33.944Z,14.08
2022-10-19T21:12:02.313Z,13.24
2022-10-19T21:14:30.830Z,12.59
2022-10-19T21:17:00.368Z,12.07
2022-10-19T21:19:29.989Z,11.99
2022-10-19T21:22:02.351Z,13.19
2022-10-19T21:24:36.561Z,13.81
2022-10-19T21:27:09.387Z,13.96
2022-10-19T21:29:42.189Z,14.05
2022-10-19T21:32:10.705Z,13.87
2022-10-19T21:34:39.141Z,13.18
2022-10-19T21:37:08.401Z,12.43
2022-10-19T21:39:37.305Z,11.83
2022-10-19T21:42:09.175Z,11.48
2022-10-19T21:44:38.537Z,11.69
2022-10-19T21:47:08.071Z,11.85
2022-10-19T21:49:36.287Z,11.78
2022-10-19T21:52:04.672Z,11.71
2022-10-19T21:54:33.146Z,11.65
2022-10-19T21:57:02.961Z,11.62
2022-10-19T21:59:31.227Z,11.59
2022-10-19T22:01:59.895Z,11.62
2022-10-19T22:05:08.515Z,11.79
2022-10-19T22:07:37.326Z,12.28
2022-10-19T22:10:06.851Z,13.18
2022-10-19T22:12:38.256Z,14.04
2022-10-19T22:15:07.806Z,14.48
2022-10-19T22:17:36.038Z,14.70
2022-10-19T22:20:04.868Z,13.94
2022-10-19T22:22:33.468Z,13.05
2022-10-19T22:25:02.130Z,12.36
2022-10-19T22:27:30.534Z,11.84
2022-10-19T22:29:58.667Z,11.73
2022-10-19T22:32:26.733Z,12.83
2022-10-19T22:34:54.704Z,13.94
2022-10-19T22:37:22.770Z,14.42
2022-10-19T22:39:50.803Z,13.72
2022-10-19T22:42:18.792Z,12.85
2022-10-19T22:44:46.786Z,12.17
2022-10-19T22:47:14.775Z,11.95
2022-10-19T22:49:42.724Z,13.01
2022-10-19T22:52:11.576Z,14.08
2022-10-19T22:54:39.704Z,14.53
2022-10-19T22:57:08.298Z,13.82
2022-10-19T22:59:36.310Z,12.94
2022-10-19T23:02:04.779Z,12.25
2022-10-19T23:04:32.956Z,11.71
2022-10-19T23:07:01.155Z,11.26
2022-10-19T23:09:29.199Z,11.09
2022-10-19T23:11:57.217Z,11.95
2022-10-19T23:14:25.402Z,12.80
2022-10-19T23:16:53.378Z,13.41
2022-10-19T23:19:21.454Z,13.52
2022-10-19T23:21:49.594Z,12.82
2022-10-19T23:24:20.676Z,12.04
2022-10-19T23:26:48.829Z,11.44
2022-10-19T23:29:16.883Z,10.98
2022-10-19T23:31:44.891Z,10.78
2022-10-19T23:34:15.506Z,11.42
2022-10-19T23:36:43.658Z,12.06
2022-10-19T23:39:11.847Z,12.28
2022-10-19T23:41:39.904Z,12.28
2022-10-19T23:44:09.807Z,11.70
2022-10-19T23:46:40.852Z,11.04
2022-10-19T23:49:08.934Z,10.52
2022-10-19T23:51:37.794Z,10.10
2022-10-19T23:54:06.061Z,9.92
2022-10-19T23:56:34.222Z,10.37
2022-10-19T23:59:02.386Z,10.63
